sensor_id;sensor_type;location;lat;lon;timestamp;P1;durP1;ratioP1;P2;durP2;ratioP2
47153;SDS011;32907;41.412;2.164;2023-04-30T00:01:28;1.67;;;0.95;;
47153;SDS011;32907;41.412;2.164;2023-04-30T00:03:56;1.55;;;0.95;;
47153;SDS011;32907;41.412;2.164;2023-04-30T00:06:26;1.33;;;0.57;;
47153;SDS011;32907;41.412;2.164;2023-04-30T00:08:55;2.42;;;0.90;;
47153;SDS011;32907;41.412;2.164;2023-04-30T00:11:23;1.77;;;0.90;;
47153;SDS011;32907;41.412;2.164;2023-04-30T00:13:54;2.95;;;0.90;;
47153;SDS011;32907;41.412;2.164;2023-04-30T00:16:23;1.48;;;0.77;;
47153;SDS011;32907;41.412;2.164;2023-04-30T00:18:51;2.50;;;0.90;;
47153;SDS011;32907;41.412;2.164;2023-04-30T00:21:19;1.67;;;0.77;;
47153;SDS011;32907;41.412;2.164;2023-04-30T00:23:48;1.50;;;0.80;;
47153;SDS011;32907;41.412;2.164;2023-04-30T00:26:16;1.65;;;0.90;;
47153;SDS011;32907;41.412;2.164;2023-04-30T00:28:47;2.03;;;0.80;;
47153;SDS011;32907;41.412;2.164;2023-04-30T00:31:15;2.20;;;0.90;;
47153;SDS011;32907;41.412;2.164;2023-04-30T00:33:44;2.45;;;1.08;;
47153;SDS011;32907;41.412;2.164;2023-04-30T00:36:12;2.20;;;1.02;;
47153;SDS011;32907;41.412;2.164;2023-04-30T00:38:40;1.75;;;0.88;;
47153;SDS011;32907;41.412;2.164;2023-04-30T00:41:08;1.60;;;0.80;;
47153;SDS011;32907;41.412;2.164;2023-04-30T00:43:36;1.58;;;0.80;;
47153;SDS011;32907;41.412;2.164;2023-04-30T00:46:04;1.77;;;0.90;;
47153;SDS011;32907;41.412;2.164;2023-04-30T00:48:33;1.10;;;0.73;;
47153;SDS011;32907;41.412;2.164;2023-04-30T00:51:01;1.83;;;0.82;;
47153;SDS011;32907;41.412;2.164;2023-04-30T00:53:30;1.52;;;0.80;;
47153;SDS011;32907;41.412;2.164;2023-04-30T00:55:58;1.45;;;0.70;;
47153;SDS011;32907;41.412;2.164;2023-04-30T00:58:26;1.67;;;0.82;;
47153;SDS011;32907;41.412;2.164;2023-04-30T01:00:54;0.90;;;0.70;;
47153;SDS011;32907;41.412;2.164;2023-04-30T01:03:22;2.42;;;1.10;;
47153;SDS011;32907;41.412;2.164;2023-04-30T01:05:50;3.92;;;0.77;;
47153;SDS011;32907;41.412;2.164;2023-04-30T01:08:20;1.70;;;1.10;;
47153;SDS011;32907;41.412;2.164;2023-04-30T01:10:57;1.42;;;0.88;;
47153;SDS011;32907;41.412;2.164;2023-04-30T01:13:40;1.50;;;0.95;;
47153;SDS011;32907;41.412;2.164;2023-04-30T01:16:22;1.50;;;0.98;;
47153;SDS011;32907;41.412;2.164;2023-04-30T01:21:28;1.67;;;1.10;;
47153;SDS011;32907;41.412;2.164;2023-04-30T01:27:18;1.73;;;1.00;;
47153;SDS011;32907;41.412;2.164;2023-04-30T01:29:57;1.65;;;1.00;;
47153;SDS011;32907;41.412;2.164;2023-04-30T01:32:28;4.10;;;1.30;;
47153;SDS011;32907;41.412;2.164;2023-04-30T01:34:57;1.42;;;0.80;;
47153;SDS011;32907;41.412;2.164;2023-04-30T01:37:30;1.70;;;1.13;;
47153;SDS011;32907;41.412;2.164;2023-04-30T01:45:57;2.58;;;1.35;;
47153;SDS011;32907;41.412;2.164;2023-04-30T01:48:52;2.05;;;1.20;;
47153;SDS011;32907;41.412;2.164;2023-04-30T01:51:42;2.80;;;1.33;;
47153;SDS011;32907;41.412;2.164;2023-04-30T01:54:27;3.05;;;1.48;;
47153;SDS011;32907;41.412;2.164;2023-04-30T01:57:00;2.33;;;1.20;;
47153;SDS011;32907;41.412;2.164;2023-04-30T01:59:32;4.20;;;1.20;;
47153;SDS011;32907;41.412;2.164;2023-04-30T02:02:02;2.33;;;1.20;;
47153;SDS011;32907;41.412;2.164;2023-04-30T02:04:30;2.35;;;1.40;;
47153;SDS011;32907;41.412;2.164;2023-04-30T02:06:58;3.58;;;1.50;;
47153;SDS011;32907;41.412;2.164;2023-04-30T02:09:25;2.00;;;1.17;;
47153;SDS011;32907;41.412;2.164;2023-04-30T02:11:54;2.35;;;1.20;;
47153;SDS011;32907;41.412;2.164;2023-04-30T02:14:24;1.65;;;1.00;;
47153;SDS011;32907;41.412;2.164;2023-04-30T02:16:52;1.50;;;0.90;;
47153;SDS011;32907;41.412;2.164;2023-04-30T02:19:20;2.45;;;1.27;;
47153;SDS011;32907;41.412;2.164;2023-04-30T02:21:48;2.90;;;1.02;;
47153;SDS011;32907;41.412;2.164;2023-04-30T02:24:16;2.83;;;1.05;;
47153;SDS011;32907;41.412;2.164;2023-04-30T02:26:44;1.42;;;1.00;;
47153;SDS011;32907;41.412;2.164;2023-04-30T02:29:12;3.08;;;1.20;;
47153;SDS011;32907;41.412;2.164;2023-04-30T02:31:39;1.45;;;0.80;;
47153;SDS011;32907;41.412;2.164;2023-04-30T02:34:10;2.45;;;0.90;;
47153;SDS011;32907;41.412;2.164;2023-04-30T02:36:38;1.67;;;0.90;;
47153;SDS011;32907;41.412;2.164;2023-04-30T02:39:06;1.73;;;0.90;;
47153;SDS011;32907;41.412;2.164;2023-04-30T02:41:35;1.92;;;0.90;;
47153;SDS011;32907;41.412;2.164;2023-04-30T02:44:03;3.08;;;0.80;;
47153;SDS011;32907;41.412;2.164;2023-04-30T02:46:31;2.97;;;0.90;;
47153;SDS011;32907;41.412;2.164;2023-04-30T02:48:58;1.58;;;0.90;;
47153;SDS011;32907;41.412;2.164;2023-04-30T02:51:26;1.40;;;0.70;;
47153;SDS011;32907;41.412;2.164;2023-04-30T02:53:57;1.50;;;0.80;;
47153;SDS011;32907;41.412;2.164;2023-04-30T02:56:25;2.08;;;0.80;;
47153;SDS011;32907;41.412;2.164;2023-04-30T02:58:53;1.83;;;0.80;;
47153;SDS011;32907;41.412;2.164;2023-04-30T03:01:20;1.52;;;0.70;;
47153;SDS011;32907;41.412;2.164;2023-04-30T03:03:48;1.30;;;0.88;;
47153;SDS011;32907;41.412;2.164;2023-04-30T03:06:16;2.65;;;0.90;;
47153;SDS011;32907;41.412;2.164;2023-04-30T03:08:44;2.28;;;1.00;;
47153;SDS011;32907;41.412;2.164;2023-04-30T03:11:12;1.35;;;0.88;;
47153;SDS011;32907;41.412;2.164;2023-04-30T03:13:40;2.03;;;1.08;;
47153;SDS011;32907;41.412;2.164;2023-04-30T03:16:11;3.92;;;0.85;;
47153;SDS011;32907;41.412;2.164;2023-04-30T03:18:39;1.75;;;1.05;;
47153;SDS011;32907;41.412;2.164;2023-04-30T03:21:07;1.65;;;1.10;;
47153;SDS011;32907;41.412;2.164;2023-04-30T03:23:36;1.50;;;0.98;;
47153;SDS011;32907;41.412;2.164;2023-04-30T03:26:04;3.17;;;1.20;;
47153;SDS011;32907;41.412;2.164;2023-04-30T03:28:32;1.60;;;1.08;;
47153;SDS011;32907;41.412;2.164;2023-04-30T03:31:02;2.30;;;1.00;;
47153;SDS011;32907;41.412;2.164;2023-04-30T03:33:31;1.73;;;0.85;;
47153;SDS011;32907;41.412;2.164;2023-04-30T03:36:00;1.95;;;0.90;;
47153;SDS011;32907;41.412;2.164;2023-04-30T03:38:27;1.77;;;0.90;;
47153;SDS011;32907;41.412;2.164;2023-04-30T03:40:55;2.15;;;0.90;;
47153;SDS011;32907;41.412;2.164;2023-04-30T03:43:23;0.90;;;0.60;;
47153;SDS011;32907;41.412;2.164;2023-04-30T03:45:51;1.83;;;0.85;;
47153;SDS011;32907;41.412;2.164;2023-04-30T03:48:19;0.95;;;0.70;;
47153;SDS011;32907;41.412;2.164;2023-04-30T03:50:47;1.40;;;0.68;;
47153;SDS011;32907;41.412;2.164;2023-04-30T03:53:16;1.50;;;0.77;;
47153;SDS011;32907;41.412;2.164;2023-04-30T03:55:44;1.90;;;0.90;;
47153;SDS011;32907;41.412;2.164;2023-04-30T03:58:12;1.73;;;0.93;;
47153;SDS011;32907;41.412;2.164;2023-04-30T04:00:40;1.58;;;0.85;;
47153;SDS011;32907;41.412;2.164;2023-04-30T04:03:09;1.23;;;0.80;;
47153;SDS011;32907;41.412;2.164;2023-04-30T04:05:38;1.30;;;0.80;;
47153;SDS011;32907;41.412;2.164;2023-04-30T04:08:06;2.25;;;1.00;;
47153;SDS011;32907;41.412;2.164;2023-04-30T04:10:34;1.80;;;1.10;;
47153;SDS011;32907;41.412;2.164;2023-04-30T04:13:02;2.40;;;0.93;;
47153;SDS011;32907;41.412;2.164;2023-04-30T04:15:30;3.05;;;1.08;;
47153;SDS011;32907;41.412;2.164;2023-04-30T04:17:58;2.00;;;1.10;;
47153;SDS011;32907;41.412;2.164;2023-04-30T04:20:26;3.83;;;0.90;;
47153;SDS011;32907;41.412;2.164;2023-04-30T04:22:56;2.75;;;0.93;;
47153;SDS011;32907;41.412;2.164;2023-04-30T04:25:24;1.40;;;1.00;;
47153;SDS011;32907;41.412;2.164;2023-04-30T04:27:52;2.03;;;1.00;;
47153;SDS011;32907;41.412;2.164;2023-04-30T04:30:19;2.13;;;0.88;;
47153;SDS011;32907;41.412;2.164;2023-04-30T04:32:49;2.58;;;1.10;;
47153;SDS011;32907;41.412;2.164;2023-04-30T04:35:20;2.38;;;1.00;;
47153;SDS011;32907;41.412;2.164;2023-04-30T04:37:48;3.15;;;1.05;;
47153;SDS011;32907;41.412;2.164;2023-04-30T04:40:16;2.58;;;1.15;;
47153;SDS011;32907;41.412;2.164;2023-04-30T04:42:44;1.50;;;0.80;;
47153;SDS011;32907;41.412;2.164;2023-04-30T04:45:11;2.15;;;1.10;;
47153;SDS011;32907;41.412;2.164;2023-04-30T04:47:39;1.80;;;0.90;;
47153;SDS011;32907;41.412;2.164;2023-04-30T04:50:08;2.85;;;0.60;;
47153;SDS011;32907;41.412;2.164;2023-04-30T04:52:36;1.55;;;0.95;;
47153;SDS011;32907;41.412;2.164;2023-04-30T04:55:05;1.55;;;1.00;;
47153;SDS011;32907;41.412;2.164;2023-04-30T04:57:35;2.50;;;1.10;;
47153;SDS011;32907;41.412;2.164;2023-04-30T05:00:03;1.58;;;0.82;;
47153;SDS011;32907;41.412;2.164;2023-04-30T05:02:34;2.03;;;1.00;;
47153;SDS011;32907;41.412;2.164;2023-04-30T05:05:02;1.60;;;1.00;;
47153;SDS011;32907;41.412;2.164;2023-04-30T05:07:30;2.53;;;0.93;;
47153;SDS011;32907;41.412;2.164;2023-04-30T05:09:58;2.13;;;1.13;;
47153;SDS011;32907;41.412;2.164;2023-04-30T05:12:26;2.75;;;1.10;;
47153;SDS011;32907;41.412;2.164;2023-04-30T05:14:54;1.92;;;0.88;;
47153;SDS011;32907;41.412;2.164;2023-04-30T05:17:21;3.28;;;1.20;;
47153;SDS011;32907;41.412;2.164;2023-04-30T05:19:49;1.40;;;0.80;;
47153;SDS011;32907;41.412;2.164;2023-04-30T05:22:18;1.88;;;0.75;;
47153;SDS011;32907;41.412;2.164;2023-04-30T05:24:45;2.33;;;0.80;;
47153;SDS011;32907;41.412;2.164;2023-04-30T05:27:13;1.83;;;0.82;;
47153;SDS011;32907;41.412;2.164;2023-04-30T05:29:42;1.88;;;0.90;;
47153;SDS011;32907;41.412;2.164;2023-04-30T05:32:10;1.73;;;0.90;;
47153;SDS011;32907;41.412;2.164;2023-04-30T05:34:38;2.45;;;0.80;;
47153;SDS011;32907;41.412;2.164;2023-04-30T05:37:06;1.35;;;0.77;;
47153;SDS011;32907;41.412;2.164;2023-04-30T05:39:33;1.98;;;1.05;;
47153;SDS011;32907;41.412;2.164;2023-04-30T05:42:01;1.70;;;0.70;;
47153;SDS011;32907;41.412;2.164;2023-04-30T05:44:29;3.08;;;0.90;;
47153;SDS011;32907;41.412;2.164;2023-04-30T05:46:57;2.28;;;0.93;;
47153;SDS011;32907;41.412;2.164;2023-04-30T05:49:25;2.95;;;0.95;;
47153;SDS011;32907;41.412;2.164;2023-04-30T05:51:53;3.67;;;1.27;;
47153;SDS011;32907;41.412;2.164;2023-04-30T05:54:21;1.35;;;0.80;;
47153;SDS011;32907;41.412;2.164;2023-04-30T05:56:49;4.00;;;1.27;;
47153;SDS011;32907;41.412;2.164;2023-04-30T05:59:17;2.63;;;1.00;;
47153;SDS011;32907;41.412;2.164;2023-04-30T06:01:45;4.57;;;2.40;;
47153;SDS011;32907;41.412;2.164;2023-04-30T06:04:13;7.18;;;5.45;;
47153;SDS011;32907;41.412;2.164;2023-04-30T06:06:41;10.82;;;8.23;;
47153;SDS011;32907;41.412;2.164;2023-04-30T06:09:08;9.55;;;7.75;;
47153;SDS011;32907;41.412;2.164;2023-04-30T06:11:36;8.02;;;6.20;;
47153;SDS011;32907;41.412;2.164;2023-04-30T06:14:08;7.03;;;4.65;;
47153;SDS011;32907;41.412;2.164;2023-04-30T06:16:36;6.70;;;3.42;;
47153;SDS011;32907;41.412;2.164;2023-04-30T06:19:04;4.57;;;2.90;;
47153;SDS011;32907;41.412;2.164;2023-04-30T06:21:32;3.72;;;2.03;;
47153;SDS011;32907;41.412;2.164;2023-04-30T06:24:00;3.65;;;2.25;;
47153;SDS011;32907;41.412;2.164;2023-04-30T06:26:28;2.90;;;1.73;;
47153;SDS011;32907;41.412;2.164;2023-04-30T06:28:56;3.20;;;1.42;;
47153;SDS011;32907;41.412;2.164;2023-04-30T06:31:23;2.65;;;1.25;;
47153;SDS011;32907;41.412;2.164;2023-04-30T06:33:52;3.50;;;1.10;;
47153;SDS011;32907;41.412;2.164;2023-04-30T06:36:20;2.78;;;1.10;;
47153;SDS011;32907;41.412;2.164;2023-04-30T06:38:48;1.98;;;1.23;;
47153;SDS011;32907;41.412;2.164;2023-04-30T06:41:16;2.88;;;1.42;;
47153;SDS011;32907;41.412;2.164;2023-04-30T06:43:44;3.78;;;1.42;;
47153;SDS011;32907;41.412;2.164;2023-04-30T06:46:11;1.92;;;0.95;;
47153;SDS011;32907;41.412;2.164;2023-04-30T06:48:41;2.20;;;1.13;;
47153;SDS011;32907;41.412;2.164;2023-04-30T06:51:10;1.70;;;1.08;;
47153;SDS011;32907;41.412;2.164;2023-04-30T06:53:38;2.17;;;1.10;;
47153;SDS011;32907;41.412;2.164;2023-04-30T06:56:06;2.20;;;0.77;;
47153;SDS011;32907;41.412;2.164;2023-04-30T06:58:34;3.30;;;1.02;;
47153;SDS011;32907;41.412;2.164;2023-04-30T07:01:01;2.33;;;1.00;;
47153;SDS011;32907;41.412;2.164;2023-04-30T07:03:29;2.05;;;0.88;;
47153;SDS011;32907;41.412;2.164;2023-04-30T07:05:57;3.17;;;0.98;;
47153;SDS011;32907;41.412;2.164;2023-04-30T07:08:26;1.27;;;1.00;;
47153;SDS011;32907;41.412;2.164;2023-04-30T07:10:54;1.90;;;1.02;;
47153;SDS011;32907;41.412;2.164;2023-04-30T07:13:22;3.00;;;1.00;;
47153;SDS011;32907;41.412;2.164;2023-04-30T07:15:50;2.90;;;1.10;;
47153;SDS011;32907;41.412;2.164;2023-04-30T07:18:19;3.45;;;0.88;;
47153;SDS011;32907;41.412;2.164;2023-04-30T07:20:47;2.08;;;0.75;;
47153;SDS011;32907;41.412;2.164;2023-04-30T07:23:15;2.17;;;0.90;;
47153;SDS011;32907;41.412;2.164;2023-04-30T07:25:42;2.45;;;1.10;;
47153;SDS011;32907;41.412;2.164;2023-04-30T07:28:11;3.85;;;2.20;;
47153;SDS011;32907;41.412;2.164;2023-04-30T07:30:39;5.15;;;3.60;;
47153;SDS011;32907;41.412;2.164;2023-04-30T07:33:07;8.27;;;4.18;;
47153;SDS011;32907;41.412;2.164;2023-04-30T07:35:35;5.63;;;3.22;;
47153;SDS011;32907;41.412;2.164;2023-04-30T07:38:03;8.95;;;2.35;;
47153;SDS011;32907;41.412;2.164;2023-04-30T07:40:34;5.95;;;2.50;;
47153;SDS011;32907;41.412;2.164;2023-04-30T07:43:03;5.78;;;2.28;;
47153;SDS011;32907;41.412;2.164;2023-04-30T07:45:31;4.45;;;2.42;;
47153;SDS011;32907;41.412;2.164;2023-04-30T07:48:00;6.03;;;2.10;;
47153;SDS011;32907;41.412;2.164;2023-04-30T07:50:28;4.55;;;1.98;;
47153;SDS011;32907;41.412;2.164;2023-04-30T07:53:00;8.13;;;2.88;;
47153;SDS011;32907;41.412;2.164;2023-04-30T07:55:28;4.38;;;3.15;;
47153;SDS011;32907;41.412;2.164;2023-04-30T07:57:57;3.65;;;2.10;;
47153;SDS011;32907;41.412;2.164;2023-04-30T08:00:25;5.25;;;2.20;;
47153;SDS011;32907;41.412;2.164;2023-04-30T08:02:56;4.60;;;2.78;;
47153;SDS011;32907;41.412;2.164;2023-04-30T08:05:25;4.18;;;2.30;;
47153;SDS011;32907;41.412;2.164;2023-04-30T08:07:53;4.07;;;2.20;;
47153;SDS011;32907;41.412;2.164;2023-04-30T08:10:21;4.00;;;2.42;;
47153;SDS011;32907;41.412;2.164;2023-04-30T08:12:49;4.25;;;1.85;;
47153;SDS011;32907;41.412;2.164;2023-04-30T08:15:17;3.10;;;2.10;;
47153;SDS011;32907;41.412;2.164;2023-04-30T08:17:48;2.47;;;1.80;;
47153;SDS011;32907;41.412;2.164;2023-04-30T08:20:17;3.17;;;2.00;;
47153;SDS011;32907;41.412;2.164;2023-04-30T08:22:45;3.55;;;2.10;;
47153;SDS011;32907;41.412;2.164;2023-04-30T08:25:13;4.30;;;2.00;;
47153;SDS011;32907;41.412;2.164;2023-04-30T08:27:41;4.22;;;2.05;;
47153;SDS011;32907;41.412;2.164;2023-04-30T08:30:09;3.88;;;2.08;;
47153;SDS011;32907;41.412;2.164;2023-04-30T08:32:37;4.47;;;1.73;;
47153;SDS011;32907;41.412;2.164;2023-04-30T08:35:06;3.45;;;1.42;;
47153;SDS011;32907;41.412;2.164;2023-04-30T08:37:34;5.55;;;1.63;;
47153;SDS011;32907;41.412;2.164;2023-04-30T08:40:02;9.65;;;2.03;;
47153;SDS011;32907;41.412;2.164;2023-04-30T08:42:31;3.90;;;1.90;;
47153;SDS011;32907;41.412;2.164;2023-04-30T08:45:03;5.28;;;2.20;;
47153;SDS011;32907;41.412;2.164;2023-04-30T08:47:33;4.45;;;1.70;;
47153;SDS011;32907;41.412;2.164;2023-04-30T08:50:01;4.53;;;1.92;;
47153;SDS011;32907;41.412;2.164;2023-04-30T08:52:29;83.15;;;10.50;;
47153;SDS011;32907;41.412;2.164;2023-04-30T08:55:01;25.20;;;5.28;;
47153;SDS011;32907;41.412;2.164;2023-04-30T08:57:34;11.43;;;3.05;;
47153;SDS011;32907;41.412;2.164;2023-04-30T09:00:03;6.72;;;2.53;;
47153;SDS011;32907;41.412;2.164;2023-04-30T09:02:33;13.50;;;4.22;;
47153;SDS011;32907;41.412;2.164;2023-04-30T09:05:01;12.02;;;5.10;;
47153;SDS011;32907;41.412;2.164;2023-04-30T09:07:29;6.50;;;3.05;;
47153;SDS011;32907;41.412;2.164;2023-04-30T09:10:02;10.73;;;3.10;;
47153;SDS011;32907;41.412;2.164;2023-04-30T09:12:31;6.22;;;2.30;;
47153;SDS011;32907;41.412;2.164;2023-04-30T09:15:05;8.82;;;2.63;;
47153;SDS011;32907;41.412;2.164;2023-04-30T09:17:35;8.80;;;2.63;;
47153;SDS011;32907;41.412;2.164;2023-04-30T09:20:10;5.50;;;2.70;;
47153;SDS011;32907;41.412;2.164;2023-04-30T09:22:39;9.57;;;3.60;;
47153;SDS011;32907;41.412;2.164;2023-04-30T09:25:08;9.25;;;3.90;;
47153;SDS011;32907;41.412;2.164;2023-04-30T09:27:37;17.80;;;6.72;;
47153;SDS011;32907;41.412;2.164;2023-04-30T09:30:05;19.38;;;6.57;;
47153;SDS011;32907;41.412;2.164;2023-04-30T09:32:34;12.25;;;4.75;;
47153;SDS011;32907;41.412;2.164;2023-04-30T09:35:02;17.52;;;5.32;;
47153;SDS011;32907;41.412;2.164;2023-04-30T09:37:35;9.27;;;4.00;;
47153;SDS011;32907;41.412;2.164;2023-04-30T09:40:04;7.55;;;3.90;;
47153;SDS011;32907;41.412;2.164;2023-04-30T09:42:33;5.38;;;3.50;;
47153;SDS011;32907;41.412;2.164;2023-04-30T09:45:03;5.15;;;3.40;;
47153;SDS011;32907;41.412;2.164;2023-04-30T09:47:31;49.38;;;12.95;;
47153;SDS011;32907;41.412;2.164;2023-04-30T09:49:59;78.95;;;22.45;;
47153;SDS011;32907;41.412;2.164;2023-04-30T09:52:27;39.13;;;13.35;;
47153;SDS011;32907;41.412;2.164;2023-04-30T09:54:55;20.63;;;7.63;;
47153;SDS011;32907;41.412;2.164;2023-04-30T09:57:23;7.28;;;4.20;;
47153;SDS011;32907;41.412;2.164;2023-04-30T09:59:51;8.70;;;3.80;;
47153;SDS011;32907;41.412;2.164;2023-04-30T10:02:20;6.65;;;4.00;;
47153;SDS011;32907;41.412;2.164;2023-04-30T10:04:53;5.75;;;3.90;;
47153;SDS011;32907;41.412;2.164;2023-04-30T10:07:25;5.35;;;3.53;;
47153;SDS011;32907;41.412;2.164;2023-04-30T10:10:07;5.73;;;3.70;;
47153;SDS011;32907;41.412;2.164;2023-04-30T10:12:43;6.07;;;3.47;;
47153;SDS011;32907;41.412;2.164;2023-04-30T10:15:19;4.47;;;2.83;;
47153;SDS011;32907;41.412;2.164;2023-04-30T10:17:56;5.28;;;2.90;;
47153;SDS011;32907;41.412;2.164;2023-04-30T10:20:33;7.15;;;3.03;;
47153;SDS011;32907;41.412;2.164;2023-04-30T10:23:05;5.72;;;2.90;;
47153;SDS011;32907;41.412;2.164;2023-04-30T10:25:35;7.20;;;2.90;;
47153;SDS011;32907;41.412;2.164;2023-04-30T10:28:06;8.00;;;3.47;;
47153;SDS011;32907;41.412;2.164;2023-04-30T10:30:35;6.03;;;3.80;;
47153;SDS011;32907;41.412;2.164;2023-04-30T10:35:50;8.10;;;4.40;;
47153;SDS011;32907;41.412;2.164;2023-04-30T10:40:56;9.70;;;5.10;;
47153;SDS011;32907;41.412;2.164;2023-04-30T10:43:25;7.35;;;4.07;;
47153;SDS011;32907;41.412;2.164;2023-04-30T10:45:56;5.25;;;3.83;;
47153;SDS011;32907;41.412;2.164;2023-04-30T10:48:27;4.95;;;3.90;;
47153;SDS011;32907;41.412;2.164;2023-04-30T10:50:58;10.20;;;5.80;;
47153;SDS011;32907;41.412;2.164;2023-04-30T10:53:28;9.40;;;7.10;;
47153;SDS011;32907;41.412;2.164;2023-04-30T10:55:59;10.23;;;8.18;;
47153;SDS011;32907;41.412;2.164;2023-04-30T10:58:34;12.07;;;10.43;;
47153;SDS011;32907;41.412;2.164;2023-04-30T11:01:13;15.48;;;13.10;;
47153;SDS011;32907;41.412;2.164;2023-04-30T11:03:43;15.63;;;12.52;;
47153;SDS011;32907;41.412;2.164;2023-04-30T11:09:47;10.90;;;8.73;;
47153;SDS011;32907;41.412;2.164;2023-04-30T11:12:16;8.95;;;6.90;;
47153;SDS011;32907;41.412;2.164;2023-04-30T11:14:48;7.93;;;5.70;;
47153;SDS011;32907;41.412;2.164;2023-04-30T11:17:23;6.50;;;4.90;;
47153;SDS011;32907;41.412;2.164;2023-04-30T11:19:52;6.13;;;4.25;;
47153;SDS011;32907;41.412;2.164;2023-04-30T11:22:21;8.68;;;5.43;;
47153;SDS011;32907;41.412;2.164;2023-04-30T11:25:07;7.70;;;5.28;;
47153;SDS011;32907;41.412;2.164;2023-04-30T11:27:36;7.45;;;5.07;;
47153;SDS011;32907;41.412;2.164;2023-04-30T11:30:12;8.27;;;4.85;;
47153;SDS011;32907;41.412;2.164;2023-04-30T11:32:45;5.57;;;4.97;;
47153;SDS011;32907;41.412;2.164;2023-04-30T11:35:16;8.35;;;5.43;;
47153;SDS011;32907;41.412;2.164;2023-04-30T11:37:45;6.63;;;5.47;;
47153;SDS011;32907;41.412;2.164;2023-04-30T11:40:14;7.43;;;5.05;;
47153;SDS011;32907;41.412;2.164;2023-04-30T11:42:43;6.95;;;4.50;;
47153;SDS011;32907;41.412;2.164;2023-04-30T11:45:13;7.32;;;4.15;;
47153;SDS011;32907;41.412;2.164;2023-04-30T11:47:48;5.72;;;3.58;;
47153;SDS011;32907;41.412;2.164;2023-04-30T11:50:22;6.45;;;3.58;;
47153;SDS011;32907;41.412;2.164;2023-04-30T11:52:56;4.85;;;3.30;;
47153;SDS011;32907;41.412;2.164;2023-04-30T11:55:25;5.82;;;3.35;;
47153;SDS011;32907;41.412;2.164;2023-04-30T11:57:55;4.88;;;3.00;;
47153;SDS011;32907;41.412;2.164;2023-04-30T12:00:26;6.80;;;3.63;;
47153;SDS011;32907;41.412;2.164;2023-04-30T12:02:56;8.15;;;4.03;;
47153;SDS011;32907;41.412;2.164;2023-04-30T12:05:26;7.75;;;4.78;;
47153;SDS011;32907;41.412;2.164;2023-04-30T12:08:03;8.75;;;4.70;;
47153;SDS011;32907;41.412;2.164;2023-04-30T12:10:39;6.80;;;3.80;;
47153;SDS011;32907;41.412;2.164;2023-04-30T12:13:07;5.68;;;3.58;;
47153;SDS011;32907;41.412;2.164;2023-04-30T12:15:34;8.52;;;4.85;;
47153;SDS011;32907;41.412;2.164;2023-04-30T12:18:09;9.32;;;5.10;;
47153;SDS011;32907;41.412;2.164;2023-04-30T12:20:39;9.40;;;5.07;;
47153;SDS011;32907;41.412;2.164;2023-04-30T12:23:09;8.63;;;4.07;;
47153;SDS011;32907;41.412;2.164;2023-04-30T12:25:40;8.10;;;3.83;;
47153;SDS011;32907;41.412;2.164;2023-04-30T12:28:12;7.63;;;3.95;;
47153;SDS011;32907;41.412;2.164;2023-04-30T12:30:40;5.85;;;3.78;;
47153;SDS011;32907;41.412;2.164;2023-04-30T12:33:09;8.85;;;3.67;;
47153;SDS011;32907;41.412;2.164;2023-04-30T12:35:40;6.10;;;3.20;;
47153;SDS011;32907;41.412;2.164;2023-04-30T12:38:09;5.68;;;3.00;;
47153;SDS011;32907;41.412;2.164;2023-04-30T12:40:37;6.75;;;3.45;;
47153;SDS011;32907;41.412;2.164;2023-04-30T12:43:06;11.98;;;4.80;;
47153;SDS011;32907;41.412;2.164;2023-04-30T12:45:45;17.80;;;9.43;;
47153;SDS011;32907;41.412;2.164;2023-04-30T12:48:21;24.45;;;11.80;;
47153;SDS011;32907;41.412;2.164;2023-04-30T12:50:54;16.15;;;8.40;;
47153;SDS011;32907;41.412;2.164;2023-04-30T12:53:28;10.07;;;5.78;;
47153;SDS011;32907;41.412;2.164;2023-04-30T12:56:12;9.93;;;5.13;;
47153;SDS011;32907;41.412;2.164;2023-04-30T12:58:43;9.27;;;5.38;;
47153;SDS011;32907;41.412;2.164;2023-04-30T13:01:20;4.88;;;3.22;;
47153;SDS011;32907;41.412;2.164;2023-04-30T13:03:51;6.78;;;3.17;;
47153;SDS011;32907;41.412;2.164;2023-04-30T13:06:20;5.65;;;2.88;;
47153;SDS011;32907;41.412;2.164;2023-04-30T13:08:49;4.57;;;2.53;;
47153;SDS011;32907;41.412;2.164;2023-04-30T13:11:22;4.35;;;2.38;;
47153;SDS011;32907;41.412;2.164;2023-04-30T13:13:50;4.20;;;2.50;;
47153;SDS011;32907;41.412;2.164;2023-04-30T13:16:18;5.35;;;2.60;;
47153;SDS011;32907;41.412;2.164;2023-04-30T13:18:46;7.18;;;2.75;;
47153;SDS011;32907;41.412;2.164;2023-04-30T13:21:14;4.28;;;2.08;;
47153;SDS011;32907;41.412;2.164;2023-04-30T13:23:41;4.60;;;2.53;;
47153;SDS011;32907;41.412;2.164;2023-04-30T13:26:19;4.57;;;2.42;;
47153;SDS011;32907;41.412;2.164;2023-04-30T13:28:48;5.07;;;2.45;;
47153;SDS011;32907;41.412;2.164;2023-04-30T13:31:18;5.78;;;2.83;;
47153;SDS011;32907;41.412;2.164;2023-04-30T13:33:47;5.78;;;2.63;;
47153;SDS011;32907;41.412;2.164;2023-04-30T13:36:15;3.60;;;2.38;;
47153;SDS011;32907;41.412;2.164;2023-04-30T13:38:46;4.93;;;2.42;;
47153;SDS011;32907;41.412;2.164;2023-04-30T13:41:14;3.95;;;2.50;;
47153;SDS011;32907;41.412;2.164;2023-04-30T13:43:42;3.47;;;2.20;;
47153;SDS011;32907;41.412;2.164;2023-04-30T13:46:11;3.97;;;2.20;;
47153;SDS011;32907;41.412;2.164;2023-04-30T13:48:39;2.83;;;2.20;;
47153;SDS011;32907;41.412;2.164;2023-04-30T13:51:08;3.88;;;1.92;;
47153;SDS011;32907;41.412;2.164;2023-04-30T13:53:36;4.03;;;1.90;;
47153;SDS011;32907;41.412;2.164;2023-04-30T13:56:04;4.82;;;1.92;;
47153;SDS011;32907;41.412;2.164;2023-04-30T13:58:32;3.38;;;2.17;;
47153;SDS011;32907;41.412;2.164;2023-04-30T14:01:00;4.97;;;2.38;;
47153;SDS011;32907;41.412;2.164;2023-04-30T14:03:29;3.00;;;2.15;;
47153;SDS011;32907;41.412;2.164;2023-04-30T14:05:57;5.22;;;2.00;;
47153;SDS011;32907;41.412;2.164;2023-04-30T14:08:25;3.42;;;1.80;;
47153;SDS011;32907;41.412;2.164;2023-04-30T14:10:53;2.55;;;1.65;;
47153;SDS011;32907;41.412;2.164;2023-04-30T14:13:21;4.40;;;1.73;;
47153;SDS011;32907;41.412;2.164;2023-04-30T14:15:48;2.45;;;1.80;;
47153;SDS011;32907;41.412;2.164;2023-04-30T14:18:16;4.78;;;1.75;;
47153;SDS011;32907;41.412;2.164;2023-04-30T14:20:44;2.33;;;1.52;;
47153;SDS011;32907;41.412;2.164;2023-04-30T14:23:12;2.67;;;1.42;;
47153;SDS011;32907;41.412;2.164;2023-04-30T14:25:40;5.10;;;2.22;;
47153;SDS011;32907;41.412;2.164;2023-04-30T14:28:08;2.58;;;1.83;;
47153;SDS011;32907;41.412;2.164;2023-04-30T14:30:36;3.45;;;1.85;;
47153;SDS011;32907;41.412;2.164;2023-04-30T14:33:04;2.28;;;1.70;;
47153;SDS011;32907;41.412;2.164;2023-04-30T14:35:32;4.88;;;2.00;;
47153;SDS011;32907;41.412;2.164;2023-04-30T14:38:00;4.28;;;2.00;;
47153;SDS011;32907;41.412;2.164;2023-04-30T14:40:28;4.28;;;2.03;;
47153;SDS011;32907;41.412;2.164;2023-04-30T14:42:56;5.03;;;1.90;;
47153;SDS011;32907;41.412;2.164;2023-04-30T14:45:23;3.10;;;1.63;;
47153;SDS011;32907;41.412;2.164;2023-04-30T14:47:54;4.20;;;2.50;;
47153;SDS011;32907;41.412;2.164;2023-04-30T14:50:22;5.68;;;4.22;;
47153;SDS011;32907;41.412;2.164;2023-04-30T14:52:50;8.65;;;4.97;;
47153;SDS011;32907;41.412;2.164;2023-04-30T14:55:18;6.55;;;4.07;;
47153;SDS011;32907;41.412;2.164;2023-04-30T14:57:47;3.95;;;2.90;;
47153;SDS011;32907;41.412;2.164;2023-04-30T15:00:15;4.85;;;2.10;;
47153;SDS011;32907;41.412;2.164;2023-04-30T15:02:43;4.85;;;1.80;;
47153;SDS011;32907;41.412;2.164;2023-04-30T15:05:12;2.67;;;1.50;;
47153;SDS011;32907;41.412;2.164;2023-04-30T15:07:40;2.83;;;1.20;;
47153;SDS011;32907;41.412;2.164;2023-04-30T15:10:11;2.00;;;1.20;;
47153;SDS011;32907;41.412;2.164;2023-04-30T15:12:41;3.45;;;1.35;;
47153;SDS011;32907;41.412;2.164;2023-04-30T15:15:09;3.53;;;1.17;;
47153;SDS011;32907;41.412;2.164;2023-04-30T15:17:37;2.78;;;1.33;;
47153;SDS011;32907;41.412;2.164;2023-04-30T15:20:07;3.97;;;1.20;;